Chadstone Weather > Observations for 23/09/20

Select Day:



Observations
Time Temp Hum DP Wind Gust Dir Rain >9am Press
C % C kph kph mm hPa
00:00 12.4 70 7.1 3.4 7.2 NNW 0.0 1017.3
00:10 12.4 69 6.9 4.3 8.6 NNW 0.0 1017.3
00:20 12.3 68 6.6 5.6 9.7 N 0.0 1017.2
00:30 12.2 68 6.5 5.3 11.2 NW 0.0 1017.2
00:40 12.0 67 6.1 5.6 11.2 N 0.0 1017.2
00:50 12.0 68 6.3 5.9 13.3 NW 0.0 1017.0
01:00 11.8 69 6.3 6.6 12.2 NNW 0.0 1017.1
01:10 11.8 69 6.3 7.4 13.3 NW 0.0 1017.0
01:20 11.9 70 6.6 5.9 11.2 NW 0.0 1017.0
01:30 11.9 70 6.6 5.9 15.8 NW 0.0 1016.9
01:40 11.9 70 6.6 5.8 12.2 NW 0.0 1016.8
01:50 11.9 71 6.8 5.8 13.3 NW 0.0 1016.9
02:00 11.9 71 6.8 8.7 22.0 NW 0.0 1016.8
02:10 11.9 72 7.0 10.5 18.4 NW 0.0 1016.9
02:20 12.0 71 6.9 8.6 22.0 WNW 0.0 1016.8
02:30 11.9 71 6.8 9.2 22.0 NW 0.0 1016.8
02:40 12.0 71 6.9 8.6 15.8 NNW 0.0 1016.8
02:50 11.9 72 7.0 9.3 18.4 NW 0.0 1016.8
03:00 11.9 72 7.0 8.0 15.8 NW 0.0 1016.7
03:10 11.9 72 7.0 10.0 18.4 NW 0.0 1016.6
03:20 11.8 72 6.9 10.1 18.4 NW 0.0 1016.5
03:30 11.8 72 6.9 8.1 19.4 NNW 0.0 1016.5
03:40 11.9 72 7.0 8.0 17.3 NW 0.0 1016.4
03:50 11.8 72 6.9 8.5 17.3 NW 0.0 1016.3
04:00 11.6 72 6.7 8.1 17.3 NW 0.0 1016.3
04:10 11.6 73 6.9 7.4 24.5 NW 0.0 1016.4
04:20 11.6 73 6.9 8.2 24.5 NW 0.0 1016.4
04:30 11.6 73 6.9 6.9 14.8 NNW 0.0 1016.5
04:40 11.6 73 6.9 8.1 15.8 NW 0.0 1016.5
04:50 11.6 73 6.9 7.5 19.4 NW 0.0 1016.5
05:00 11.6 73 6.9 6.1 19.4 NW 0.0 1016.8
05:10 11.6 73 6.9 5.5 12.2 NW 0.0 1016.8
05:20 11.5 73 6.8 6.1 12.2 NNW 0.0 1016.8
05:30 11.5 73 6.8 6.3 15.8 NNW 0.0 1016.8
05:40 11.5 73 6.8 5.7 15.8 NNW 0.0 1016.9
05:50 11.5 73 6.8 5.5 14.8 NW 0.0 1016.9
06:00 11.5 73 6.8 5.4 14.8 NW 0.0 1016.9
06:10 11.4 73 6.7 6.9 13.3 NW 0.0 1017.1
06:20 11.4 73 6.7 6.8 14.8 NW 0.0 1017.0
06:30 11.3 73 6.6 6.4 12.2 NW 0.0 1017.1
06:40 11.3 73 6.6 6.5 12.2 NNW 0.0 1017.3
06:50 11.4 73 6.7 6.6 13.3 NNW 0.0 1017.3
07:00 11.3 73 6.6 6.3 13.3 NW 0.0 1017.6
07:10 11.4 74 6.9 5.8 11.2 NNW 0.0 1017.7
07:20 11.6 74 7.1 7.6 14.8 NW 0.0 1017.8
07:30 11.7 74 7.2 7.1 13.3 NW 0.0 1017.8
07:40 12.0 72 7.1 6.2 14.8 WNW 0.0 1017.8
07:50 12.2 72 7.3 8.9 17.3 NW 0.0 1017.9
08:00 12.3 71 7.2 10.5 22.0 W 0.0 1018.0
08:10 12.5 71 7.4 13.0 22.0 WNW 0.0 1018.1
08:20 12.6 71 7.5 11.7 22.0 WNW 0.0 1018.2
08:30 12.6 71 7.5 10.2 23.4 NW 0.0 1018.3
08:40 12.7 71 7.6 9.9 23.4 WSW 0.0 1018.2
08:50 12.8 71 7.7 14.1 30.6 W 0.0 1018.3
09:00 12.8 71 7.7 12.4 30.6 WNW 0.0 1018.3
09:10 13.0 71 7.9 12.0 20.9 WNW 0.0 1018.3
09:20 13.1 70 7.8 11.5 23.4 W 0.0 1018.3
09:30 13.2 70 7.9 11.8 23.4 W 0.0 1018.4
09:40 13.2 71 8.1 11.6 25.6 WNW 0.0 1018.4
09:50 13.3 74 8.8 8.7 25.6 WSW 0.3 1018.7
10:00 12.7 77 8.8 5.9 18.4 W 0.6 1018.6
10:10 12.8 81 9.6 6.6 19.4 W 0.6 1018.6
10:20 12.6 82 9.6 6.9 13.3 WSW 0.6 1018.7
10:30 12.6 83 9.8 8.7 18.4 WNW 0.6 1018.6
10:40 13.5 85 11.0 7.6 19.4 WNW 0.6 1018.5
10:50 14.0 81 10.8 8.9 17.3 WNW 0.6 1018.3
11:00 13.9 80 10.5 10.5 29.5 WSW 0.9 1018.4
11:10 13.2 81 10.0 7.6 17.3 W 1.2 1018.2
11:20 13.9 85 11.4 5.8 13.3 W 1.2 1018.0
11:30 13.6 84 11.0 5.3 12.2 WNW 1.2 1018.0
11:40 13.7 84 11.1 6.7 13.3 WNW 1.2 1018.3
11:50 14.0 82 11.0 7.5 22.0 WSW 1.2 1018.7
12:00 15.0 79 11.4 6.9 19.4 W 1.2 1018.8
12:10 15.3 76 11.1 9.1 18.4 WNW 1.2 1018.7
12:20 15.1 72 10.1 8.3 22.0 W 1.2 1018.8
12:30 15.1 73 10.3 8.7 25.6 S 1.2 1018.8
12:40 15.0 73 10.2 9.1 19.4 SSE 1.2 1018.8
12:50 14.5 74 9.9 6.0 15.8 NW 1.2 1018.6
13:00 14.4 75 10.0 6.5 17.3 SW 1.2 1018.5
13:10 15.1 73 10.3 7.4 20.9 W 1.2 1018.4
13:20 15.9 71 10.7 8.9 19.4 WNW 1.2 1018.3
13:30 15.8 67 9.7 11.8 29.5 WSW 1.2 1018.2
13:40 15.4 64 8.6 8.0 29.5 S 1.2 1018.0
13:50 15.7 64 8.9 6.6 22.0 WNW 1.2 1018.2
14:00 15.9 65 9.3 9.3 29.5 NW 1.2 1018.0
14:10 15.4 64 8.6 11.2 28.1 W 1.2 1018.1
14:20 15.3 67 9.2 9.8 20.9 SW 1.2 1018.3
14:30 15.4 67 9.3 7.2 18.4 WNW 1.2 1018.5
14:40 15.3 65 8.8 9.1 28.1 SW 1.2 1018.5
14:50 15.5 66 9.2 9.5 24.5 SSW 1.2 1018.2
15:00 15.5 64 8.7 8.8 28.1 W 1.2 1018.1
15:10 15.4 63 8.4 8.0 25.6 SW 1.2 1018.1
15:20 15.4 64 8.6 7.5 25.6 W 1.2 1018.2
15:30 15.6 64 8.8 7.4 23.4 SW 1.2 1018.4
15:40 15.3 65 8.8 10.5 28.1 SW 1.2 1018.4
15:50 14.7 66 8.4 6.5 19.4 SW 1.2 1018.5
16:00 14.3 66 8.0 6.1 15.8 WSW 1.2 1018.6
16:10 14.5 66 8.2 6.8 20.9 SW 1.2 1018.7
16:20 14.7 64 8.0 7.2 19.4 SW 1.2 1018.6
16:30 14.7 62 7.5 7.5 24.5 W 1.2 1018.7
16:40 14.6 61 7.2 7.4 20.9 W 1.2 1018.8
16:50 14.4 61 7.0 5.7 17.3 WSW 1.2 1019.0
17:00 14.3 61 6.9 6.8 18.4 SW 1.2 1019.1
17:10 14.1 60 6.5 7.7 22.0 SSW 1.2 1019.3
17:20 14.1 57 5.7 6.8 20.9 SW 1.2 1019.5
17:30 14.0 58 5.9 13.0 25.6 WSW 1.2 1019.7
17:40 13.8 60 6.2 5.8 18.4 WSW 1.2 1020.2
17:50 13.6 61 6.2 5.7 17.3 W 1.2 1020.2
18:00 13.4 60 5.8 4.9 17.3 NW 1.2 1020.4
18:10 13.2 62 6.1 4.7 15.8 SSW 1.2 1020.2
18:20 13.1 63 6.2 3.6 14.8 WNW 1.2 1020.5
18:30 13.0 65 6.6 4.2 17.3 SW 1.2 1020.6
18:40 12.9 65 6.5 6.6 20.9 WSW 1.2 1020.6
18:50 12.7 66 6.5 7.7 17.3 SSW 1.2 1020.8
19:00 12.6 66 6.4 5.7 19.4 SW 1.2 1020.9
19:10 12.4 68 6.7 9.2 22.0 W 1.2 1020.9
19:20 12.3 70 7.0 6.1 14.8 WNW 1.2 1020.9
19:30 12.2 71 7.1 9.2 23.4 WNW 1.2 1020.9
19:40 12.2 72 7.3 5.6 15.8 WSW 1.2 1021.0
19:50 12.1 72 7.2 7.2 20.9 W 1.2 1020.8
20:00 12.0 72 7.1 5.5 15.8 WSW 1.2 1020.9
20:10 12.1 72 7.2 7.3 18.4 WSW 1.2 1021.0
20:20 12.0 72 7.1 4.7 13.3 WSW 1.2 1021.1
20:30 11.9 73 7.2 7.5 24.5 SW 1.2 1021.4
20:40 11.8 73 7.1 8.5 22.0 W 1.2 1021.6
20:50 11.7 73 7.0 5.1 13.3 WNW 1.2 1021.6
21:00 11.7 74 7.2 5.6 13.3 W 1.2 1021.7
21:10 11.6 74 7.1 5.3 13.3 W 1.2 1021.9
21:20 11.5 74 7.0 7.4 17.3 WSW 1.2 1022.0
21:30 11.5 74 7.0 6.2 15.8 W 1.2 1022.1
21:40 11.5 74 7.0 5.4 15.8 W 1.2 1022.1
21:50 11.5 75 7.2 4.7 18.4 WSW 1.2 1022.2
22:00 11.4 75 7.1 6.3 15.8 WSW 1.2 1022.2
22:10 11.3 75 7.0 6.2 15.8 WSW 1.2 1022.1
22:20 11.1 75 6.8 7.9 15.8 WNW 1.2 1022.0
22:30 11.1 75 6.8 5.1 14.8 WNW 1.2 1021.8
22:40 10.9 76 6.8 6.6 14.8 WNW 1.2 1021.9
22:50 10.8 76 6.7 8.9 20.9 WNW 1.2 1022.0
23:00 10.9 76 6.8 7.3 20.9 WNW 1.2 1022.0
23:10 10.9 77 7.0 7.2 22.0 W 1.2 1022.1
23:20 10.7 77 6.8 9.9 22.0 W 1.2 1022.2
23:30 10.7 77 6.8 7.7 15.8 W 1.2 1022.1
23:40 10.7 78 7.0 7.6 17.3 W 1.2 1022.0
23:50 10.7 78 7.0 7.6 15.8 W 1.2 1022.1